createdAt,value
2018-12-06T00:03:03.988Z,13.47
2018-12-06T00:08:16.132Z,13.33
2018-12-06T00:13:18.913Z,16.10
2018-12-06T00:18:21.798Z,19.90
2018-12-06T00:23:24.828Z,16.70
2018-12-06T00:28:27.716Z,14.97
2018-12-06T00:33:30.628Z,16.47
2018-12-06T00:38:33.654Z,13.53
2018-12-06T00:43:36.420Z,20.73
2018-12-06T00:48:39.187Z,20.23
2018-12-06T00:53:42.157Z,15.00
2018-12-06T00:58:44.905Z,14.27
2018-12-06T01:03:47.811Z,16.10
2018-12-06T01:08:50.731Z,15.00
2018-12-06T01:13:53.562Z,14.07
2018-12-06T01:18:56.412Z,16.47
2018-12-06T01:23:59.442Z,17.40
2018-12-06T01:29:02.321Z,16.97
2018-12-06T01:34:05.207Z,17.73
2018-12-06T01:39:08.330Z,15.90
2018-12-06T01:44:11.011Z,13.97
2018-12-06T01:49:13.869Z,17.27
2018-12-06T01:54:16.706Z,15.13
2018-12-06T01:59:19.627Z,17.80
2018-12-06T02:04:22.353Z,10.90
2018-12-06T02:09:25.196Z,14.27
2018-12-06T02:14:27.977Z,16.00
2018-12-06T02:19:30.776Z,14.63
2018-12-06T02:24:34.196Z,17.37
2018-12-06T02:29:42.920Z,12.70
2018-12-06T02:34:45.773Z,14.93
2018-12-06T02:39:48.656Z,12.33
2018-12-06T02:44:51.458Z,14.50
2018-12-06T02:49:54.250Z,15.97
2018-12-06T02:54:57.138Z,15.13
2018-12-06T02:59:59.959Z,14.30
2018-12-06T03:05:02.937Z,14.17
2018-12-06T03:10:05.986Z,14.47
2018-12-06T03:15:09.099Z,14.03
2018-12-06T03:20:12.132Z,15.43
2018-12-06T03:25:14.795Z,12.47
2018-12-06T03:30:17.771Z,15.50
2018-12-06T03:35:20.727Z,16.37
2018-12-06T03:40:23.603Z,16.23
2018-12-06T03:45:27.032Z,13.97
2018-12-06T03:50:29.648Z,12.03
2018-12-06T03:55:32.389Z,13.63
2018-12-06T04:00:35.051Z,16.20
2018-12-06T04:05:37.700Z,15.87
2018-12-06T04:10:40.364Z,11.47
2018-12-06T04:15:43.081Z,16.37
2018-12-06T04:20:46.011Z,12.83
2018-12-06T04:25:48.829Z,12.27
2018-12-06T04:30:51.634Z,10.43
2018-12-06T04:35:56.414Z,13.67
2018-12-06T04:40:59.081Z,11.27
2018-12-06T04:46:01.748Z,12.83
2018-12-06T04:51:04.743Z,10.97
2018-12-06T04:56:07.476Z,10.60
2018-12-06T05:01:10.171Z,12.47
2018-12-06T05:06:13.385Z,13.87
2018-12-06T05:11:16.289Z,11.80
2018-12-06T05:16:19.166Z,13.10
2018-12-06T05:21:21.981Z,13.63
2018-12-06T05:26:24.902Z,14.53
2018-12-06T05:31:27.644Z,11.03
2018-12-06T05:36:30.512Z,9.50
2018-12-06T05:41:33.418Z,10.30
2018-12-06T05:46:36.280Z,11.20
2018-12-06T05:51:39.520Z,10.00
2018-12-06T05:56:42.271Z,10.60
2018-12-06T06:01:45.202Z,12.40
2018-12-06T06:06:48.076Z,9.70
2018-12-06T06:11:51.295Z,9.23
2018-12-06T06:16:54.172Z,12.47
2018-12-06T06:21:56.844Z,9.43
2018-12-06T06:26:59.884Z,7.83
2018-12-06T06:32:02.845Z,8.60
2018-12-06T06:37:05.855Z,7.40
2018-12-06T06:42:08.666Z,11.20
2018-12-06T06:47:11.853Z,10.10
2018-12-06T06:52:14.815Z,9.10
2018-12-06T06:57:17.865Z,12.13
2018-12-06T07:02:20.745Z,7.67
2018-12-06T07:07:23.632Z,15.67
2018-12-06T07:12:26.677Z,9.87
2018-12-06T07:17:29.479Z,10.23
2018-12-06T07:22:32.955Z,8.93
2018-12-06T07:27:36.720Z,9.07
2018-12-06T07:32:41.425Z,18.53
2018-12-06T07:37:44.316Z,10.47
2018-12-06T07:42:48.741Z,9.90
2018-12-06T07:47:53.021Z,9.93
2018-12-06T07:52:55.869Z,15.27
2018-12-06T07:57:58.770Z,9.77
2018-12-06T08:03:01.653Z,14.40
2018-12-06T08:08:04.525Z,15.60
2018-12-06T08:13:09.519Z,11.33
2018-12-06T08:18:13.154Z,16.37
2018-12-06T08:23:16.127Z,10.30
2018-12-06T08:34:20.386Z,13.33
2018-12-06T08:39:23.440Z,16.97
2018-12-06T08:44:26.372Z,13.70
2018-12-06T08:49:29.577Z,11.83
2018-12-06T08:54:32.504Z,12.17
2018-12-06T09:04:53.044Z,9.63
2018-12-06T09:09:56.600Z,12.73
2018-12-06T09:14:59.458Z,9.33
2018-12-06T09:20:02.282Z,8.07
2018-12-06T09:30:27.085Z,9.40
2018-12-06T09:35:31.105Z,9.07
2018-12-06T09:40:33.853Z,7.77
2018-12-06T09:45:38.088Z,8.97
2018-12-06T09:50:41.091Z,10.77
2018-12-06T09:55:48.713Z,13.03
2018-12-06T10:00:56.298Z,11.07
2018-12-06T10:06:00.520Z,9.20
2018-12-06T10:11:03.609Z,11.10
2018-12-06T10:21:32.576Z,12.07
2018-12-06T10:26:35.361Z,9.43
2018-12-06T10:37:04.117Z,12.23
2018-12-06T10:42:07.153Z,11.80
2018-12-06T10:47:09.996Z,13.40
2018-12-06T10:52:12.849Z,10.83
2018-12-06T10:57:20.207Z,8.63
2018-12-06T11:02:30.097Z,13.50
2018-12-06T11:07:34.596Z,9.73
2018-12-06T11:12:37.929Z,12.03
2018-12-06T11:17:40.597Z,9.47
2018-12-06T11:22:44.012Z,10.97
2018-12-06T11:27:46.699Z,9.60
2018-12-06T11:32:50.225Z,10.43
2018-12-06T11:37:53.006Z,11.27
2018-12-06T11:42:55.895Z,10.97
2018-12-06T11:47:59.480Z,9.10
2018-12-06T11:53:02.235Z,10.73
2018-12-06T11:58:11.459Z,10.47
2018-12-06T12:03:09.973Z,9.70
2018-12-06T12:08:12.897Z,10.93
2018-12-06T12:13:16.837Z,14.17
2018-12-06T12:18:23.541Z,10.67
2018-12-06T12:23:26.832Z,12.00
2018-12-06T12:28:29.841Z,9.37
2018-12-06T12:33:33.626Z,13.57
2018-12-06T12:38:39.383Z,13.77
2018-12-06T12:43:43.079Z,12.27
2018-12-06T12:48:45.917Z,14.10
2018-12-06T12:53:55.684Z,11.93
2018-12-06T12:58:58.221Z,13.27
2018-12-06T13:04:01.220Z,10.33
2018-12-06T13:09:07.132Z,15.73
2018-12-06T13:14:12.521Z,19.53
2018-12-06T13:19:15.363Z,18.57
2018-12-06T13:24:18.785Z,17.63
2018-12-06T13:29:21.613Z,12.57
2018-12-06T13:34:24.400Z,15.40
2018-12-06T13:44:51.022Z,11.17
2018-12-06T13:49:53.794Z,20.43
2018-12-06T13:54:56.863Z,12.30
2018-12-06T13:59:59.676Z,12.87
2018-12-06T14:05:04.083Z,13.50
2018-12-06T14:15:20.707Z,13.35
2018-12-06T14:20:23.733Z,11.90
2018-12-06T14:25:26.720Z,14.10
2018-12-06T14:30:29.702Z,12.33
2018-12-06T14:35:32.648Z,13.63
2018-12-06T14:40:35.601Z,18.60
2018-12-06T14:45:38.846Z,15.73
2018-12-06T14:50:42.978Z,15.30
2018-12-06T14:55:45.833Z,17.43
2018-12-06T15:00:48.790Z,18.33
2018-12-06T15:11:15.184Z,13.67
2018-12-06T15:16:18.056Z,16.50
2018-12-06T15:21:20.920Z,17.13
2018-12-06T15:26:23.762Z,16.53
2018-12-06T15:31:30.232Z,14.13
2018-12-06T15:36:33.267Z,15.50
2018-12-06T15:41:36.190Z,17.20
2018-12-06T15:46:39.122Z,15.90
2018-12-06T15:51:42.165Z,16.63
2018-12-06T15:56:46.021Z,19.97
2018-12-06T16:01:49.756Z,19.07
2018-12-06T16:06:53.256Z,19.40
2018-12-06T16:11:56.225Z,20.80
2018-12-06T16:16:59.193Z,22.40
2018-12-06T16:22:02.179Z,17.80
2018-12-06T16:27:05.316Z,21.03
2018-12-06T16:32:09.739Z,21.43
2018-12-06T16:37:20.836Z,21.60
2018-12-06T16:42:23.510Z,20.73
2018-12-06T16:47:26.614Z,20.57
2018-12-06T16:52:29.519Z,20.50
2018-12-06T17:02:56.194Z,20.60
2018-12-06T17:07:59.342Z,23.50
2018-12-06T17:13:02.439Z,23.27
2018-12-06T17:18:06.244Z,25.57
2018-12-06T17:23:09.074Z,26.20
2018-12-06T17:28:12.120Z,23.37
2018-12-06T17:33:14.888Z,23.90
2018-12-06T17:38:22.373Z,25.50
2018-12-06T17:43:25.290Z,26.40
2018-12-06T17:48:28.969Z,21.30
2018-12-06T17:53:31.857Z,26.90
2018-12-06T17:58:35.197Z,22.67
2018-12-06T18:03:38.122Z,25.00
2018-12-06T18:08:41.033Z,24.03
2018-12-06T18:13:43.823Z,23.80
2018-12-06T18:18:46.675Z,24.83
2018-12-06T18:23:50.255Z,25.73
2018-12-06T18:34:12.048Z,28.73
2018-12-06T18:39:14.987Z,29.93
2018-12-06T18:44:17.891Z,28.33
2018-12-06T18:49:20.786Z,26.40
2018-12-06T18:54:23.677Z,27.77
2018-12-06T18:59:26.412Z,29.90
2018-12-06T19:04:29.364Z,26.60
2018-12-06T19:09:32.088Z,28.70
2018-12-06T19:14:35.123Z,25.90
2018-12-06T19:19:38.127Z,25.03
2018-12-06T19:24:42.692Z,25.47
2018-12-06T19:29:46.913Z,29.33
2018-12-06T19:34:50.055Z,28.13
2018-12-06T19:39:52.884Z,28.37
2018-12-06T19:44:56.651Z,29.50
2018-12-06T19:49:59.574Z,30.93
2018-12-06T19:55:02.499Z,27.37
2018-12-06T20:00:08.465Z,28.83
2018-12-06T20:05:11.697Z,29.50
2018-12-06T20:10:14.975Z,27.07
2018-12-06T20:15:17.840Z,26.83
2018-12-06T20:20:23.834Z,30.17
2018-12-06T20:25:25.802Z,25.93
2018-12-06T20:30:28.640Z,27.47
2018-12-06T20:35:31.602Z,26.53
2018-12-06T20:40:34.729Z,28.13
2018-12-06T20:45:37.641Z,33.30
2018-12-06T20:50:49.157Z,31.07
2018-12-06T20:55:46.962Z,37.27
2018-12-06T21:00:49.757Z,34.40
2018-12-06T21:05:52.844Z,41.17
2018-12-06T21:10:55.640Z,37.53
2018-12-06T21:15:58.518Z,37.87
2018-12-06T21:21:01.339Z,38.33
2018-12-06T21:26:04.313Z,35.07
2018-12-06T21:31:07.258Z,34.50
2018-12-06T21:36:12.021Z,35.40
2018-12-06T21:41:15.167Z,31.30
2018-12-06T21:46:17.950Z,30.27
2018-12-06T21:51:21.710Z,29.27
2018-12-06T21:56:24.941Z,32.80
2018-12-06T22:01:27.897Z,33.53
2018-12-06T22:06:30.889Z,35.67
2018-12-06T22:11:33.845Z,38.97
2018-12-06T22:16:36.785Z,35.03
2018-12-06T22:21:40.788Z,42.77
2018-12-06T22:26:43.603Z,37.57
2018-12-06T22:31:46.471Z,34.73
2018-12-06T22:36:49.324Z,36.03
2018-12-06T22:41:52.203Z,36.30
2018-12-06T22:46:54.938Z,33.23
2018-12-06T22:51:57.870Z,28.73
2018-12-06T22:57:00.861Z,29.97
2018-12-06T23:02:03.890Z,35.20
2018-12-06T23:07:08.112Z,28.47
2018-12-06T23:12:11.053Z,27.33
2018-12-06T23:17:13.874Z,25.07
2018-12-06T23:22:17.156Z,27.50
2018-12-06T23:27:19.881Z,26.33
2018-12-06T23:32:22.817Z,26.73
2018-12-06T23:37:25.601Z,26.23
2018-12-06T23:42:28.733Z,24.93
2018-12-06T23:47:31.595Z,28.13
2018-12-06T23:52:34.520Z,24.10
2018-12-06T23:57:37.533Z,25.60
